Time;durP1;ratioP1;P1;durP2;ratioP2;P2;SDS_P1;SDS_P2;PMS_P1;PMS_P2;Temp;Humidity;BMP_temperature;BMP_pressure;BME280_temperature;BME280_humidity;BME280_pressure;Samples;Min_cycle;Max_cycle;Signal;HPM_P1;HPM_P2
2022/04/11 00:02:13;;;;;;;15.8;21.5;;;;;;;0.5;80;98880;;;;
2022/04/11 00:33:13;;;;;;;16.5;22.2;;;;;;;1.3;80.9;98880;;;;
2022/04/11 00:44:14;;;;;;;16.5;22.2;;;;;;;1.5;80.6;98880;;;;
2022/04/11 00:55:13;;;;;;;16.5;22.2;;;;;;;1.7;80;98890;;;;
2022/04/11 01:05:13;;;;;;;16;24.5;;;;;;;1.7;79.4;98890;;;;
2022/04/11 01:15:13;;;;;;;16;24.5;;;;;;;1.6;79.7;98890;;;;
2022/04/11 01:25:13;;;;;;;16;24.5;;;;;;;1.6;80.4;98890;;;;
2022/04/11 01:35:13;;;;;;;18.5;23.8;;;;;;;1.7;80.9;98890;;;;
2022/04/11 01:45:14;;;;;;;18.5;23.8;;;;;;;1.6;81.1;98890;;;;
2022/04/11 01:55:13;;;;;;;18.5;23.8;;;;;;;1.6;81.4;98910;;;;
2022/04/11 02:05:14;;;;;;;20.6;25.9;;;;;;;1.5;81.3;98910;;;;
2022/04/11 02:16:14;;;;;;;20.6;25.9;;;;;;;1.5;81.4;98910;;;;
2022/04/11 02:27:14;;;;;;;20.6;25.9;;;;;;;1.5;81.5;98920;;;;
2022/04/11 02:38:14;;;;;;;14.7;19.3;;;;;;;1.5;81.6;98930;;;;
2022/04/11 02:49:13;;;;;;;14.7;19.3;;;;;;;1.7;81.4;98930;;;;
2022/04/11 02:59:13;;;;;;;12.4;17;;;;;;;1.8;80.9;98940;;;;
2022/04/11 03:10:13;;;;;;;12.4;17;;;;;;;1.9;80.6;98950;;;;
2022/04/11 03:21:14;;;;;;;12.4;17;;;;;;;2.1;80.4;98950;;;;
2022/04/11 03:32:14;;;;;;;13.2;15.8;;;;;;;2.3;80;98950;;;;
2022/04/11 03:42:14;;;;;;;13.2;15.8;;;;;;;2.4;80;98960;;;;
2022/04/11 03:53:14;;;;;;;13.2;15.8;;;;;;;2.6;79.5;98960;;;;
2022/04/11 04:04:13;;;;;;;13.7;18.6;;;;;;;2.7;78.8;98980;;;;
2022/04/11 04:15:13;;;;;;;13.7;18.6;;;;;;;2.7;78.2;98980;;;;
2022/04/11 04:25:14;;;;;;;13.7;18.6;;;;;;;2.8;77.7;98990;;;;
2022/04/11 04:35:14;;;;;;;13.6;17.9;;;;;;;2.9;77.7;99010;;;;
2022/04/11 04:46:14;;;;;;;13.6;17.9;;;;;;;3;77.2;99020;;;;
2022/04/11 04:57:14;;;;;;;13.9;21.7;;;;;;;3.1;76.8;99030;;;;
2022/04/11 05:07:14;;;;;;;13.9;21.7;;;;;;;3.2;76.8;99040;;;;
2022/04/11 05:18:14;;;;;;;13.9;21.7;;;;;;;3.3;76.7;99040;;;;
2022/04/11 05:29:14;;;;;;;13.6;18.1;;;;;;;3.5;75.8;99070;;;;
2022/04/11 05:39:14;;;;;;;13.6;18.1;;;;;;;3.7;75.3;99080;;;;
2022/04/11 05:49:14;;;;;;;13.6;18.1;;;;;;;3.8;75.1;99080;;;;
2022/04/11 05:59:14;;;;;;;13.5;18.6;;;;;;;3.8;74.2;99090;;;;
2022/04/11 06:09:14;;;;;;;13.5;18.6;;;;;;;3.8;73.8;99100;;;;
2022/04/11 06:19:14;;;;;;;13.5;18.6;;;;;;;3.9;73.4;99100;;;;
2022/04/11 06:29:14;;;;;;;13.8;16.8;;;;;;;3.8;73.6;99100;;;;
2022/04/11 06:40:14;;;;;;;13.8;16.8;;;;;;;4.4;72.5;99100;;;;
2022/04/11 06:50:14;;;;;;;13.8;16.8;;;;;;;4.8;72;99080;;;;
2022/04/11 07:01:14;;;;;;;14.9;20.4;;;;;;;5.2;70.4;99090;;;;
2022/04/11 07:11:14;;;;;;;14.9;20.4;;;;;;;5.6;69.6;99110;;;;
2022/04/11 07:21:14;;;;;;;14.9;20.4;;;;;;;5.9;67.4;99120;;;;
2022/04/11 07:32:14;;;;;;;12;14.6;;;;;;;6;66.1;99110;;;;
2022/04/11 07:43:14;;;;;;;12;14.6;;;;;;;6.6;65.6;99110;;;;
2022/04/11 07:53:14;;;;;;;12;14.6;;;;;;;6.8;63.5;99130;;;;
2022/04/11 08:04:14;;;;;;;8.1;10.8;;;;;;;7.4;60.7;99120;;;;
2022/04/11 08:15:14;;;;;;;8.1;10.8;;;;;;;7.2;60.2;99120;;;;
2022/04/11 08:25:14;;;;;;;8.1;10.8;;;;;;;7.6;60.3;99120;;;;
2022/04/11 08:35:14;;;;;;;6.7;11.7;;;;;;;7.8;56;99120;;;;
2022/04/11 08:46:14;;;;;;;6.7;11.7;;;;;;;7.7;55.5;99110;;;;
2022/04/11 08:56:14;;;;;;;6.7;11.7;;;;;;;7.6;57.5;99110;;;;
2022/04/11 09:06:15;;;;;;;5.6;11.2;;;;;;;8;55.4;99120;;;;
2022/04/11 09:17:14;;;;;;;5.6;11.2;;;;;;;7;62.3;99130;;;;
2022/04/11 09:27:14;;;;;;;6.1;8.5;;;;;;;6.4;67.4;99140;;;;
2022/04/11 09:38:14;;;;;;;6.1;8.5;;;;;;;6.9;67.7;99120;;;;
2022/04/11 09:49:14;;;;;;;6.1;8.5;;;;;;;7.1;66.3;99120;;;;
2022/04/11 09:59:14;;;;;;;6.5;11.2;;;;;;;7.7;63.4;99120;;;;
2022/04/11 10:10:17;;;;;;;6.5;11.2;;;;;;;6.6;70.5;99130;;;;
2022/04/11 10:20:14;;;;;;;6.5;11.2;;;;;;;7;69.5;99130;;;;
2022/04/11 10:30:14;;;;;;;6.2;9.2;;;;;;;7.6;69.4;99110;;;;
2022/04/11 10:40:14;;;;;;;6.2;9.2;;;;;;;7.8;61.9;99100;;;;
2022/04/11 10:51:14;;;;;;;6.2;9.2;;;;;;;8.4;58.6;99090;;;;
2022/04/11 11:01:14;;;;;;;4.7;7.9;;;;;;;8.8;57;99080;;;;
2022/04/11 11:11:14;;;;;;;4.7;7.9;;;;;;;8.1;58.1;99090;;;;
2022/04/11 11:21:14;;;;;;;4.7;7.9;;;;;;;9.2;57.1;99090;;;;
2022/04/11 11:31:14;;;;;;;2.5;5.2;;;;;;;8.4;58.5;99090;;;;
2022/04/11 11:42:14;;;;;;;2.5;5.2;;;;;;;8.8;59.1;99080;;;;
2022/04/11 11:53:14;;;;;;;2.5;5.2;;;;;;;8.4;58.6;99060;;;;
2022/04/11 12:04:18;;;;;;;5.6;10.3;;;;;;;8.8;58.6;99050;;;;
2022/04/11 12:13:14;;;;;;;5.6;10.3;;;;;;;9.6;55.4;99050;;;;
2022/04/11 12:24:14;;;;;;;5.6;10.3;;;;;;;9;53.4;99060;;;;
2022/04/11 12:34:15;;;;;;;4.7;9.5;;;;;;;9.5;52.9;99040;;;;
2022/04/11 12:44:14;;;;;;;4.7;9.5;;;;;;;10.2;50.3;99030;;;;
2022/04/11 12:54:14;;;;;;;4.7;9.5;;;;;;;10.5;47.5;99020;;;;
2022/04/11 13:05:15;;;;;;;3.6;6.2;;;;;;;10.2;49.9;99030;;;;
2022/04/11 13:15:14;;;;;;;3.6;6.2;;;;;;;10.3;47.5;99030;;;;
2022/04/11 13:25:15;;;;;;;3.6;6.2;;;;;;;10.4;48.2;99030;;;;
2022/04/11 13:35:14;;;;;;;2.5;4.6;;;;;;;10.3;48.4;99020;;;;
2022/04/11 13:46:14;;;;;;;2.5;4.6;;;;;;;10.3;48.4;99020;;;;
2022/04/11 13:56:14;;;;;;;2.5;4.8;;;;;;;9.6;48;99020;;;;
2022/04/11 14:07:14;;;;;;;2.5;4.8;;;;;;;8.4;53.7;99060;;;;
2022/04/11 14:18:14;;;;;;;2.5;4.8;;;;;;;8.3;53.9;99040;;;;
2022/04/11 14:28:14;;;;;;;2.1;4;;;;;;;8.5;54.9;99020;;;;
2022/04/11 14:38:14;;;;;;;2.1;4;;;;;;;9.1;52.4;99020;;;;
2022/04/11 14:48:15;;;;;;;2.1;4;;;;;;;9.6;50.5;99000;;;;
2022/04/11 14:59:15;;;;;;;3;6.3;;;;;;;10;49.2;98990;;;;
2022/04/11 15:09:14;;;;;;;3;6.3;;;;;;;12;44.1;98980;;;;
2022/04/11 15:19:14;;;;;;;3;6.3;;;;;;;10.2;46;98980;;;;
2022/04/11 15:29:14;;;;;;;3.3;6.2;;;;;;;9.6;49.3;98980;;;;
2022/04/11 15:39:14;;;;;;;3.3;6.2;;;;;;;9;50.4;98980;;;;
2022/04/11 15:50:14;;;;;;;3.3;6.2;;;;;;;8.6;51.5;98990;;;;
2022/04/11 16:01:14;;;;;;;3.9;7.2;;;;;;;11;48.5;98980;;;;
2022/04/11 16:12:15;;;;;;;3.9;7.2;;;;;;;13.9;40.8;98970;;;;
2022/04/11 16:22:14;;;;;;;3.9;7.2;;;;;;;14.9;38.5;98970;;;;
2022/04/11 16:33:14;;;;;;;3;6.2;;;;;;;13;40.6;98970;;;;
2022/04/11 16:44:14;;;;;;;3;6.2;;;;;;;10.9;46.2;98970;;;;
2022/04/11 16:54:14;;;;;;;3;6.2;;;;;;;9.9;48.2;98970;;;;
2022/04/11 17:04:14;;;;;;;4.9;10.1;;;;;;;9;49.9;98980;;;;
2022/04/11 17:26:14;;;;;;;8.1;10;;;;;;;7.5;54.5;98990;;;;
2022/04/11 17:36:14;;;;;;;8.1;10;;;;;;;7;56.5;98990;;;;
2022/04/11 17:46:14;;;;;;;8.1;10;;;;;;;6.9;56.9;99000;;;;
2022/04/11 17:57:14;;;;;;;24.5;30.3;;;;;;;6.5;62;99010;;;;
2022/04/11 18:07:14;;;;;;;24.5;30.3;;;;;;;6.2;61.2;99010;;;;
2022/04/11 18:17:14;;;;;;;24.5;30.3;;;;;;;5.9;61.7;99030;;;;
2022/04/11 18:27:14;;;;;;;49.4;60.7;;;;;;;5.7;61.8;99030;;;;
2022/04/11 18:38:14;;;;;;;49.4;60.7;;;;;;;5.3;64.1;99050;;;;
2022/04/11 18:48:14;;;;;;;49.4;60.7;;;;;;;4.9;66.4;99060;;;;
2022/04/11 18:59:14;;;;;;;29.7;36.9;;;;;;;4.6;66.9;99060;;;;
2022/04/11 19:09:14;;;;;;;29.7;36.9;;;;;;;4.5;66.8;99060;;;;
2022/04/11 19:19:14;;;;;;;29.7;36.9;;;;;;;4.4;66.9;99070;;;;
2022/04/11 19:30:16;;;;;;;61.8;80.3;;;;;;;4.5;66.4;99060;;;;
2022/04/11 19:41:16;;;;;;;61.8;80.3;;;;;;;4.6;66.5;99070;;;;
2022/04/11 19:52:14;;;;;;;61.8;80.3;;;;;;;4.7;66.9;99070;;;;
2022/04/11 20:02:14;;;;;;;38;50.3;;;;;;;4.8;67.2;99060;;;;
2022/04/11 20:12:14;;;;;;;38;50.3;;;;;;;4.8;66.2;99060;;;;
2022/04/11 20:23:15;;;;;;;38;50.3;;;;;;;4.8;67;99070;;;;
2022/04/11 20:33:14;;;;;;;29.9;38.4;;;;;;;4.9;67;99080;;;;
2022/04/11 20:43:14;;;;;;;29.9;38.4;;;;;;;4.9;67.5;99070;;;;
2022/04/11 20:53:14;;;;;;;29.9;38.4;;;;;;;4.9;67.7;99060;;;;
2022/04/11 21:04:14;;;;;;;27.1;34;;;;;;;5;68;99060;;;;
2022/04/11 21:14:14;;;;;;;27.1;34;;;;;;;5;68.9;99070;;;;
2022/04/11 21:24:14;;;;;;;27.1;34;;;;;;;5;68.7;99070;;;;
2022/04/11 21:34:14;;;;;;;20.4;26.8;;;;;;;5.1;67.4;99070;;;;
2022/04/11 21:45:14;;;;;;;20.4;26.8;;;;;;;5.1;66.6;99060;;;;
2022/04/11 21:56:14;;;;;;;25.6;30.1;;;;;;;5;69.6;99070;;;;
2022/04/11 22:07:14;;;;;;;25.6;30.1;;;;;;;4.8;71.3;99050;;;;
2022/04/11 22:17:14;;;;;;;25.6;30.1;;;;;;;4.5;71;99040;;;;
2022/04/11 22:27:14;;;;;;;37.2;47.7;;;;;;;4.3;70.6;99040;;;;
2022/04/11 22:37:14;;;;;;;37.2;47.7;;;;;;;4.1;73.2;99060;;;;
2022/04/11 22:48:14;;;;;;;37.2;47.7;;;;;;;4;73.7;99070;;;;
2022/04/11 22:59:14;;;;;;;35.6;42.8;;;;;;;4;73.6;99060;;;;
2022/04/11 23:09:14;;;;;;;35.6;42.8;;;;;;;4;73.3;99060;;;;
2022/04/11 23:20:14;;;;;;;35.6;42.8;;;;;;;4;73;99050;;;;
2022/04/11 23:31:14;;;;;;;31.7;40.7;;;;;;;4.1;72.5;99050;;;;
2022/04/11 23:42:14;;;;;;;31.7;40.7;;;;;;;3.9;75;99050;;;;
2022/04/11 23:52:14;;;;;;;31.7;40.7;;;;;;;4.1;74.1;99050;;;;
